Alleghany, California
Current Conditions -  °F | °C
As of 7:52 AM on Thursday 18 Dec 2014 (Local Time) from KBLU Reporting Station
Overcast Overcast  
Wind Chill: 34°   Ceiling: 2100
Heat Index: 34°   Visibility: 10mi
Dew Point: 30°   Wind: 3mph
Humidity: 85%   Direction: 110°ESE
Pressure: 30.12"   Gusts: NA
Location:  39.47°N, 120.85°W
Report Text: KBLU 181552Z AUTO 11003KT 10SM OVC021 01/M01 A3012 RMK AO2 SLP205 T00111011
Loading
Personal Weather Stations






























Interactive Weather Map New forecast layout! Learn more

10-Day Weather Forecast

Advertisements
Track Severe Weather on mobile